Terminal Aerodrome Forecast
Issued by NWS

Home | Current Version | Previous Version | Text Only | Print | Product List | Glossary On
Versions: 1 2 3 4 5 6 7 8 9 10 11 12 13 14 15 16 17 18 19 20 21 22 23 24 25 26 27 28 29 30
964
FTUS43 KLOT 061507 AAA
TAFMDW
TAF AMD
KMDW 061507Z 0615/0712 24008KT P6SM VCSH BKN100
     FM061800 24010G15KT P6SM SCT100
     FM070100 24010KT P6SM SCT100
     FM071100 28010G17KT P6SM SCT090 BKN150=

USA.gov is the U.S. government's official web portal to all federal, state and local government web resources and services.